createdAt,value
2022-08-09T00:01:54.623Z,86434.40
2022-08-09T00:04:34.563Z,86436.40
2022-08-09T00:07:07.639Z,86438.20
2022-08-09T00:09:40.978Z,86442.40
2022-08-09T00:12:22.556Z,86439.80
2022-08-09T00:14:56.693Z,86438.80
2022-08-09T00:18:10.395Z,86438.80
2022-08-09T00:20:16.551Z,86445.40
2022-08-09T00:22:47.425Z,86444.80
2022-08-09T00:25:23.633Z,86444.80
2022-08-09T00:28:04.141Z,86439.60
2022-08-09T00:30:34.643Z,86438.40
2022-08-09T00:33:04.063Z,86439.40
2022-08-09T00:35:42.954Z,86436.60
2022-08-09T00:38:15.262Z,86432.20
2022-08-09T00:40:52.666Z,86433.00
2022-08-09T00:44:13.717Z,86433.40
2022-08-09T00:46:55.350Z,86429.20
2022-08-09T00:49:04.140Z,86430.60
2022-08-09T00:51:34.006Z,86432.60
2022-08-09T00:54:12.411Z,86440.60
2022-08-09T00:56:45.075Z,86439.00
2022-08-09T00:59:14.430Z,86438.80
2022-08-09T01:02:04.101Z,86436.20
2022-08-09T01:04:49.690Z,86441.00
2022-08-09T01:08:00.613Z,86438.00
2022-08-09T01:11:20.209Z,86444.60
2022-08-09T01:14:30.557Z,86444.00
2022-08-09T01:17:48.206Z,86437.60
2022-08-09T01:21:17.959Z,86441.00
2022-08-09T01:24:40.083Z,86445.00
2022-08-09T01:27:17.809Z,86446.60
2022-08-09T01:30:28.543Z,86448.80
2022-08-09T01:33:01.533Z,86450.40
2022-08-09T01:35:51.986Z,86445.40
2022-08-09T01:38:27.374Z,86445.00
2022-08-09T01:41:26.049Z,86450.00
2022-08-09T01:44:04.618Z,86453.20
2022-08-09T01:46:47.001Z,86453.40
2022-08-09T01:49:24.379Z,86457.20
2022-08-09T01:52:07.461Z,86476.60
2022-08-09T01:54:55.327Z,86478.60
2022-08-09T01:57:46.148Z,86489.20
2022-08-09T02:00:34.867Z,86488.60
2022-08-09T02:03:11.373Z,86493.40
2022-08-09T02:06:03.227Z,86495.40
2022-08-09T02:08:58.979Z,86509.20
2022-08-09T02:11:42.548Z,86515.40
2022-08-09T02:14:25.248Z,86531.60
2022-08-09T02:17:14.996Z,86516.00
2022-08-09T02:19:48.225Z,86531.40
2022-08-09T02:22:38.085Z,86535.40
2022-08-09T02:25:42.569Z,86533.00
2022-08-09T02:28:44.902Z,86553.40
2022-08-09T02:31:34.174Z,86553.40
2022-08-09T02:34:26.041Z,86558.40
2022-08-09T02:37:12.213Z,86557.80
2022-08-09T02:40:01.593Z,86556.60
2022-08-09T02:42:44.513Z,86569.40
2022-08-09T02:45:30.772Z,86561.40
2022-08-09T02:48:19.506Z,86576.40
2022-08-09T02:51:03.330Z,86572.60
2022-08-09T02:53:39.503Z,86587.40
2022-08-09T02:56:13.980Z,86596.00
2022-08-09T02:58:45.668Z,86605.60
2022-08-09T03:01:21.956Z,86607.60
2022-08-09T03:04:17.981Z,86608.60
2022-08-09T03:06:50.328Z,86610.00
2022-08-09T03:09:22.671Z,86611.20
2022-08-09T03:12:06.075Z,86620.40
2022-08-09T03:14:43.778Z,86625.20
2022-08-09T03:17:26.799Z,86629.00
2022-08-09T03:20:05.370Z,86633.80
2022-08-09T03:22:45.468Z,86637.40
2022-08-09T03:25:57.714Z,86634.60
2022-08-09T03:28:19.863Z,86648.80
2022-08-09T03:30:51.315Z,86654.20
2022-08-09T03:33:22.478Z,86652.80
2022-08-09T03:36:16.413Z,86652.40
2022-08-09T03:38:44.870Z,86659.00
2022-08-09T03:41:18.252Z,86671.00
2022-08-09T03:44:02.837Z,86677.60
2022-08-09T03:46:38.056Z,86681.80
2022-08-09T03:49:10.281Z,86678.20
2022-08-09T03:51:58.247Z,86687.00
2022-08-09T03:54:38.441Z,86692.80
2022-08-09T03:57:20.438Z,86701.00
2022-08-09T03:59:55.377Z,86697.40
2022-08-09T04:02:32.729Z,86701.40
2022-08-09T04:05:06.598Z,86703.80
2022-08-09T04:07:53.247Z,86710.00
2022-08-09T04:10:28.744Z,86714.20
2022-08-09T04:13:04.235Z,86722.40
2022-08-09T04:15:52.174Z,86729.60
2022-08-09T04:18:24.960Z,86730.80
2022-08-09T04:20:54.866Z,86739.20
2022-08-09T04:23:25.776Z,86751.80
2022-08-09T04:25:57.959Z,86745.00
2022-08-09T04:28:33.122Z,86738.80
2022-08-09T04:31:07.641Z,86750.80
2022-08-09T04:33:47.453Z,86754.40
2022-08-09T04:36:28.778Z,86751.80
2022-08-09T04:39:02.412Z,86756.80
2022-08-09T04:41:33.891Z,86762.80
2022-08-09T04:44:14.523Z,86770.00
2022-08-09T04:46:59.882Z,86765.60
2022-08-09T04:49:53.028Z,86774.60
2022-08-09T04:52:27.924Z,86777.80
2022-08-09T04:55:00.676Z,86785.00
2022-08-09T04:57:58.642Z,86787.40
2022-08-09T05:00:20.986Z,86791.80
2022-08-09T05:02:52.747Z,86794.20
2022-08-09T05:05:32.052Z,86795.00
2022-08-09T05:08:13.972Z,86799.60
2022-08-09T05:10:44.833Z,86811.20
2022-08-09T05:13:16.876Z,86813.20
2022-08-09T05:15:48.009Z,86815.60
2022-08-09T05:18:38.330Z,86823.00
2022-08-09T05:21:23.090Z,86818.40
2022-08-09T05:24:01.018Z,86822.60
2022-08-09T05:26:36.936Z,86823.00
2022-08-09T05:29:24.130Z,86826.20
2022-08-09T05:31:57.500Z,86831.00
2022-08-09T05:34:30.971Z,86830.80
2022-08-09T05:37:11.581Z,86837.00
2022-08-09T05:39:44.343Z,86838.40
2022-08-09T05:42:21.855Z,86842.80
2022-08-09T05:44:57.874Z,86847.60
2022-08-09T05:47:33.087Z,86844.40
2022-08-09T05:50:25.547Z,86850.20
2022-08-09T05:52:53.548Z,86850.60
2022-08-09T05:55:24.419Z,86856.40
2022-08-09T05:57:57.642Z,86862.20
2022-08-09T06:00:33.304Z,86865.00
2022-08-09T06:03:10.721Z,86864.20
2022-08-09T06:05:50.458Z,86870.20
2022-08-09T06:08:29.825Z,86872.20
2022-08-09T06:11:00.961Z,86876.20
2022-08-09T06:13:33.882Z,86877.80
2022-08-09T06:16:05.321Z,86881.00
2022-08-09T06:18:36.473Z,86880.60
2022-08-09T06:21:07.760Z,86884.40
2022-08-09T06:23:58.110Z,86883.60
2022-08-09T06:26:28.727Z,86893.60
2022-08-09T06:29:03.966Z,86894.00
2022-08-09T06:31:39.828Z,86893.60
2022-08-09T06:34:29.904Z,86902.00
2022-08-09T06:37:00.236Z,86899.80
2022-08-09T06:39:48.804Z,86904.00
2022-08-09T06:42:24.547Z,86904.00
2022-08-09T06:44:58.071Z,86914.60
2022-08-09T06:47:30.015Z,86913.00
2022-08-09T06:50:13.525Z,86911.80
2022-08-09T06:52:49.229Z,86914.80
2022-08-09T06:55:23.876Z,86914.20
2022-08-09T06:58:02.721Z,86920.00
2022-08-09T07:00:50.846Z,86914.20
2022-08-09T07:03:28.650Z,86924.80
2022-08-09T07:06:03.468Z,86921.40
2022-08-09T07:08:36.972Z,86927.60
2022-08-09T07:11:07.709Z,86919.20
2022-08-09T07:14:00.261Z,86917.00
2022-08-09T07:16:42.915Z,86930.80
2022-08-09T07:19:23.052Z,86927.40
2022-08-09T07:21:55.338Z,86926.40
2022-08-09T07:24:31.876Z,86931.40
2022-08-09T07:27:03.560Z,86929.60
2022-08-09T07:29:42.832Z,86931.20
2022-08-09T07:32:12.363Z,86927.40
2022-08-09T07:34:41.870Z,86939.00
2022-08-09T07:37:15.738Z,86938.80
2022-08-09T07:39:46.443Z,86944.40
2022-08-09T07:42:16.165Z,86944.00
2022-08-09T07:44:51.693Z,86944.40
2022-08-09T07:47:23.924Z,86942.60
2022-08-09T07:50:08.083Z,86945.00
2022-08-09T07:52:39.419Z,86946.00
2022-08-09T07:55:12.433Z,86949.00
2022-08-09T07:57:46.949Z,86945.40
2022-08-09T08:00:36.367Z,86950.40
2022-08-09T08:03:08.479Z,86950.60
2022-08-09T08:05:57.289Z,86954.60
2022-08-09T08:09:01.959Z,86950.60
2022-08-09T08:12:10.010Z,86954.60
2022-08-09T08:14:07.844Z,86960.20
2022-08-09T08:16:39.611Z,86954.40
2022-08-09T08:19:20.246Z,86955.00
2022-08-09T08:21:53.072Z,86952.80
2022-08-09T08:24:22.421Z,86955.20
2022-08-09T08:26:55.539Z,86954.00
2022-08-09T08:29:27.341Z,86956.00
2022-08-09T08:32:04.498Z,86957.80
2022-08-09T08:34:36.176Z,86962.00
2022-08-09T08:37:06.387Z,86966.60
2022-08-09T08:39:45.021Z,86966.80
2022-08-09T08:42:15.820Z,86963.40
2022-08-09T08:44:46.446Z,86966.00
2022-08-09T08:47:16.977Z,86965.40
2022-08-09T08:49:49.447Z,86967.80
2022-08-09T08:52:57.566Z,86968.00
2022-08-09T08:55:23.229Z,86969.60
2022-08-09T08:57:56.112Z,86966.40
2022-08-09T09:00:35.107Z,86975.20
2022-08-09T09:03:11.068Z,86975.00
2022-08-09T09:06:00.909Z,86983.00
2022-08-09T09:08:40.736Z,86983.80
2022-08-09T09:11:13.583Z,86984.80
2022-08-09T09:13:56.328Z,86986.00
2022-08-09T09:16:35.306Z,86990.80
2022-08-09T09:19:40.234Z,86989.60
2022-08-09T09:22:16.308Z,86991.40
2022-08-09T09:26:00.396Z,86987.20
2022-08-09T09:28:06.344Z,86995.80
2022-08-09T09:30:55.580Z,86992.00
2022-08-09T09:33:44.423Z,86994.20
2022-08-09T09:36:20.438Z,86994.60
2022-08-09T09:38:57.921Z,86992.80
2022-08-09T09:41:33.315Z,86999.60
2022-08-09T09:44:12.490Z,86995.00
2022-08-09T09:46:46.058Z,86999.60
2022-08-09T09:49:50.215Z,87001.60
2022-08-09T09:52:36.604Z,87006.00
2022-08-09T09:55:24.173Z,87003.60
2022-08-09T09:58:18.776Z,87006.60
2022-08-09T10:00:59.425Z,87005.40
2022-08-09T10:04:00.088Z,87007.20
2022-08-09T10:06:46.856Z,87010.80
2022-08-09T10:09:23.198Z,87015.60
2022-08-09T10:12:14.315Z,87013.80
2022-08-09T10:15:17.636Z,87013.20
2022-08-09T10:17:56.912Z,87018.20
2022-08-09T10:20:32.384Z,87014.40
2022-08-09T10:23:24.117Z,87017.00
2022-08-09T10:26:07.339Z,87012.20
2022-08-09T10:28:49.037Z,87012.00
2022-08-09T10:34:33.560Z,87013.00
2022-08-09T10:37:09.621Z,87014.20
2022-08-09T10:39:49.471Z,87015.00
2022-08-09T10:42:19.909Z,87019.00
2022-08-09T10:45:10.575Z,87020.80
2022-08-09T10:48:29.439Z,87017.60
2022-08-09T10:51:19.239Z,87017.00
2022-08-09T10:54:13.206Z,87015.60
2022-08-09T10:56:45.088Z,87017.60
2022-08-09T10:59:55.702Z,87015.00
2022-08-09T11:03:14.371Z,87017.80
2022-08-09T11:05:32.015Z,87016.60
2022-08-09T11:08:47.787Z,87025.40
2022-08-09T11:11:20.588Z,87025.80
2022-08-09T11:14:48.492Z,87022.60
2022-08-09T11:17:19.345Z,87035.80
2022-08-09T11:20:22.330Z,87030.80
2022-08-09T11:22:56.742Z,87038.80
2022-08-09T11:25:46.057Z,87037.20
2022-08-09T11:28:56.240Z,87039.60
2022-08-09T11:32:02.413Z,87037.60
2022-08-09T11:34:53.198Z,87031.60
2022-08-09T11:37:41.106Z,87035.60
2022-08-09T11:40:17.963Z,87035.80
2022-08-09T11:42:51.701Z,87040.40
2022-08-09T11:45:37.773Z,87038.40
2022-08-09T11:48:25.143Z,87042.40
2022-08-09T11:51:38.228Z,87041.20
2022-08-09T11:53:59.218Z,87040.20
2022-08-09T11:56:42.760Z,87041.00
2022-08-09T11:59:33.773Z,87042.60
2022-08-09T12:02:34.499Z,87049.00
2022-08-09T12:04:58.213Z,87047.60
2022-08-09T12:07:34.549Z,87054.20
2022-08-09T12:10:14.370Z,87054.00
2022-08-09T12:13:03.714Z,87056.20
2022-08-09T12:15:53.144Z,87052.20
2022-08-09T12:18:30.258Z,87056.00
2022-08-09T12:21:26.512Z,87057.20
2022-08-09T12:24:09.603Z,87048.60
2022-08-09T12:26:44.763Z,87044.40
2022-08-09T12:29:43.934Z,87047.00
2022-08-09T12:32:12.911Z,87047.20
2022-08-09T12:34:45.607Z,87046.60
2022-08-09T12:37:24.047Z,87049.40
2022-08-09T12:40:09.677Z,87047.60
2022-08-09T12:42:45.838Z,87057.20
2022-08-09T12:45:34.440Z,87057.00
2022-08-09T12:48:20.082Z,87058.20
2022-08-09T12:50:58.432Z,87055.60
2022-08-09T12:53:52.978Z,87061.20
2022-08-09T12:56:43.586Z,87062.80
2022-08-09T12:59:23.483Z,87066.60
2022-08-09T13:02:03.551Z,87068.20
2022-08-09T13:04:37.273Z,87072.20
2022-08-09T13:07:19.344Z,87069.00
2022-08-09T13:10:02.455Z,87071.20
2022-08-09T13:12:32.131Z,87074.40
2022-08-09T13:15:10.921Z,87069.40
2022-08-09T13:17:58.855Z,87073.00
2022-08-09T13:21:04.309Z,87076.60
2022-08-09T13:24:15.830Z,87075.00
2022-08-09T13:26:49.702Z,87074.40
2022-08-09T13:29:28.575Z,87078.40
2022-08-09T13:32:20.266Z,87075.60
2022-08-09T13:34:56.909Z,87075.60
2022-08-09T13:37:51.718Z,87077.40
2022-08-09T13:41:56.385Z,87073.40
2022-08-09T13:43:10.097Z,87071.20
2022-08-09T13:46:42.532Z,87072.80
2022-08-09T13:48:30.925Z,87069.80
2022-08-09T13:51:00.362Z,87069.00
2022-08-09T13:53:41.463Z,87074.20
2022-08-09T13:56:14.096Z,87073.80
2022-08-09T13:58:43.580Z,87079.60
2022-08-09T14:01:13.400Z,87075.20
2022-08-09T14:04:05.245Z,87077.60
2022-08-09T14:06:46.445Z,87077.20
2022-08-09T14:09:16.930Z,87078.80
2022-08-09T14:11:47.764Z,87077.40
2022-08-09T14:14:23.837Z,87071.40
2022-08-09T14:16:55.784Z,87067.60
2022-08-09T14:19:26.295Z,87068.80
2022-08-09T14:22:02.692Z,87070.80
2022-08-09T14:24:33.577Z,87071.20
2022-08-09T14:27:03.875Z,87073.60
2022-08-09T14:30:35.528Z,87073.40
2022-08-09T14:32:40.218Z,87072.60
2022-08-09T14:35:11.871Z,87071.00
2022-08-09T14:38:02.660Z,87069.20
2022-08-09T14:41:01.490Z,87069.00
2022-08-09T14:43:20.480Z,87064.20
2022-08-09T14:46:56.151Z,87064.00
2022-08-09T14:48:38.875Z,87063.40
2022-08-09T14:51:08.433Z,87062.40
2022-08-09T14:53:39.952Z,87061.20
2022-08-09T14:56:16.311Z,87057.60
2022-08-09T14:58:46.414Z,87052.20
2022-08-09T15:01:16.077Z,87055.00
2022-08-09T15:03:49.184Z,87052.80
2022-08-09T15:06:27.925Z,87051.00
2022-08-09T15:08:59.635Z,87051.60
2022-08-09T15:11:29.096Z,87054.80
2022-08-09T15:14:04.248Z,87052.40
2022-08-09T15:16:43.082Z,87052.60
2022-08-09T15:19:18.038Z,87046.00
2022-08-09T15:21:54.981Z,87042.20
2022-08-09T15:24:31.239Z,87038.40
2022-08-09T15:27:02.335Z,87039.40
2022-08-09T15:30:58.895Z,87034.80
2022-08-09T15:32:28.672Z,87038.00
2022-08-09T15:35:02.291Z,87036.00
2022-08-09T15:37:56.601Z,87036.80
2022-08-09T15:40:43.828Z,87031.80
2022-08-09T15:43:14.290Z,87028.80
2022-08-09T15:46:07.616Z,87027.40
2022-08-09T15:48:34.521Z,87019.80
2022-08-09T15:51:30.162Z,87024.20
2022-08-09T15:54:05.417Z,87018.00
2022-08-09T15:56:38.948Z,87012.20
2022-08-09T15:59:08.607Z,87013.40
2022-08-09T16:01:37.930Z,87012.20
2022-08-09T16:04:13.628Z,87011.00
2022-08-09T16:06:44.805Z,87011.00
2022-08-09T16:09:32.552Z,87005.00
2022-08-09T16:12:11.708Z,87007.60
2022-08-09T16:14:41.052Z,86998.80
2022-08-09T16:17:12.299Z,86993.20
2022-08-09T16:19:49.335Z,86989.20
2022-08-09T16:22:34.541Z,86983.80
2022-08-09T16:25:08.730Z,86985.00
2022-08-09T16:27:41.164Z,86977.80
2022-08-09T16:30:14.963Z,86972.20
2022-08-09T16:33:07.020Z,86970.40
2022-08-09T16:35:56.995Z,86968.40
2022-08-09T16:38:29.563Z,86966.20
2022-08-09T16:40:59.331Z,86963.20
2022-08-09T16:43:33.489Z,86956.00
2022-08-09T16:46:12.310Z,86956.80
2022-08-09T16:48:53.099Z,86955.20
2022-08-09T16:51:28.876Z,86948.80
2022-08-09T16:54:25.340Z,86951.00
2022-08-09T16:56:49.195Z,86949.20
2022-08-09T16:59:18.910Z,86940.60
2022-08-09T17:01:51.377Z,86942.80
2022-08-09T17:04:28.317Z,86941.00
2022-08-09T17:08:41.696Z,86936.00
2022-08-09T17:09:51.124Z,86934.40
2022-08-09T17:12:20.636Z,86931.00
2022-08-09T17:14:54.941Z,86926.40
2022-08-09T17:17:28.311Z,86927.20
2022-08-09T17:20:30.311Z,86925.80
2022-08-09T17:22:52.558Z,86919.80
2022-08-09T17:25:24.146Z,86911.80
2022-08-09T17:28:06.869Z,86910.80
2022-08-09T17:30:36.332Z,86908.20
2022-08-09T17:33:22.601Z,86903.80
2022-08-09T17:35:52.762Z,86902.80
2022-08-09T17:38:24.535Z,86901.60
2022-08-09T17:41:03.237Z,86901.00
2022-08-09T17:43:36.971Z,86900.40
2022-08-09T17:46:10.717Z,86892.80
2022-08-09T17:48:51.721Z,86890.40
2022-08-09T17:51:22.527Z,86888.60
2022-08-09T17:53:55.809Z,86889.80
2022-08-09T17:56:35.534Z,86883.00
2022-08-09T17:59:11.791Z,86880.00
2022-08-09T18:02:06.375Z,86877.60
2022-08-09T18:04:36.270Z,86870.60
2022-08-09T18:07:07.843Z,86865.40
2022-08-09T18:09:41.893Z,86872.20
2022-08-09T18:12:19.981Z,86866.80
2022-08-09T18:14:56.484Z,86869.40
2022-08-09T18:18:02.959Z,86858.20
2022-08-09T18:21:01.200Z,86855.60
2022-08-09T18:24:08.706Z,86852.20
2022-08-09T18:26:00.902Z,86846.80
2022-08-09T18:30:41.928Z,86843.80
2022-08-09T18:31:32.190Z,86838.60
2022-08-09T18:34:12.086Z,86836.80
2022-08-09T18:36:41.708Z,86835.40
2022-08-09T18:39:18.797Z,86827.80
2022-08-09T18:41:52.483Z,86828.20
2022-08-09T18:44:26.073Z,86826.60
2022-08-09T18:47:04.843Z,86822.80
2022-08-09T18:49:46.136Z,86821.60
2022-08-09T18:52:25.016Z,86818.80
2022-08-09T18:55:05.919Z,86814.80
2022-08-09T18:57:46.560Z,86803.00
2022-08-09T19:00:20.366Z,86795.20
2022-08-09T19:02:54.267Z,86792.60
2022-08-09T19:05:41.379Z,86791.40
2022-08-09T19:08:18.632Z,86780.00
2022-08-09T19:10:50.753Z,86778.20
2022-08-09T19:13:50.023Z,86781.40
2022-08-09T19:16:13.689Z,86776.00
2022-08-09T19:18:50.938Z,86780.80
2022-08-09T19:21:21.670Z,86776.40
2022-08-09T19:24:33.049Z,86768.20
2022-08-09T19:27:00.736Z,86764.80
2022-08-09T19:29:30.683Z,86763.60
2022-08-09T19:32:20.319Z,86763.20
2022-08-09T19:34:53.881Z,86759.00
2022-08-09T19:37:23.280Z,86755.00
2022-08-09T19:40:04.318Z,86754.00
2022-08-09T19:42:35.257Z,86744.40
2022-08-09T19:45:05.186Z,86739.00
2022-08-09T19:47:38.346Z,86743.40
2022-08-09T19:50:49.694Z,86739.00
2022-08-09T19:52:58.176Z,86734.60
2022-08-09T19:55:52.849Z,86738.40
2022-08-09T19:58:17.243Z,86737.20
2022-08-09T20:01:00.077Z,86744.00
2022-08-09T20:04:12.491Z,86738.80
2022-08-09T20:06:23.336Z,86730.20
2022-08-09T20:08:57.635Z,86729.40
2022-08-09T20:11:33.734Z,86722.00
2022-08-09T20:14:15.300Z,86718.40
2022-08-09T20:16:53.477Z,86718.40
2022-08-09T20:19:48.964Z,86711.00
2022-08-09T20:22:14.771Z,86711.60
2022-08-09T20:24:53.311Z,86713.60
2022-08-09T20:27:24.652Z,86709.00
2022-08-09T20:29:59.990Z,86712.80
2022-08-09T20:32:33.724Z,86705.60
2022-08-09T20:35:04.019Z,86714.60
2022-08-09T20:38:18.869Z,86707.40
2022-08-09T20:40:27.108Z,86714.00
2022-08-09T20:43:18.429Z,86708.40
2022-08-09T20:45:57.278Z,86710.40
2022-08-09T20:48:31.976Z,86701.80
2022-08-09T20:51:03.160Z,86695.80
2022-08-09T20:53:37.095Z,86704.80
2022-08-09T20:56:20.967Z,86699.80
2022-08-09T20:58:59.232Z,86700.40
2022-08-09T21:01:49.997Z,86706.40
2022-08-09T21:05:52.882Z,86694.80
2022-08-09T21:07:14.127Z,86686.20
2022-08-09T21:09:56.784Z,86695.80
2022-08-09T21:15:23.881Z,86691.80
2022-08-09T21:18:21.688Z,86692.20
2022-08-09T21:20:56.327Z,86684.20
2022-08-09T21:23:26.573Z,86686.80
2022-08-09T21:26:15.854Z,86690.00
2022-08-09T21:28:55.424Z,86689.20
2022-08-09T21:31:48.785Z,86695.80
2022-08-09T21:34:28.879Z,86698.60
2022-08-09T21:36:59.110Z,86699.80
2022-08-09T21:39:42.196Z,86694.20
2022-08-09T21:42:13.315Z,86693.20
2022-08-09T21:44:43.693Z,86696.00
2022-08-09T21:47:18.241Z,86697.60
2022-08-09T21:49:50.794Z,86698.20
2022-08-09T21:52:23.221Z,86696.60
2022-08-09T21:55:03.764Z,86696.80
2022-08-09T21:57:59.192Z,86693.40
2022-08-09T22:00:33.267Z,86688.80
2022-08-09T22:03:07.601Z,86695.40
2022-08-09T22:05:51.346Z,86703.20
2022-08-09T22:08:24.448Z,86699.20
2022-08-09T22:11:26.457Z,86699.40
2022-08-09T22:13:48.631Z,86694.40
2022-08-09T22:16:20.072Z,86695.40
2022-08-09T22:18:54.514Z,86692.20
2022-08-09T22:21:50.259Z,86687.00
2022-08-09T22:24:24.267Z,86691.20
2022-08-09T22:26:56.328Z,86698.80
2022-08-09T22:29:38.424Z,86696.60
2022-08-09T22:32:29.891Z,86695.00
2022-08-09T22:35:06.303Z,86692.40
2022-08-09T22:37:40.432Z,86691.00
2022-08-09T22:40:19.932Z,86688.00
2022-08-09T22:42:49.912Z,86690.40
2022-08-09T22:48:10.307Z,86687.20
2022-08-09T22:48:34.330Z,86688.60
2022-08-09T22:50:57.721Z,86686.60
2022-08-09T22:53:33.283Z,86678.00
2022-08-09T22:56:31.053Z,86682.60
2022-08-09T22:59:55.259Z,86682.00
2022-08-09T23:01:57.440Z,86686.20
2022-08-09T23:04:26.817Z,86681.60
2022-08-09T23:08:09.440Z,86686.20
2022-08-09T23:10:10.103Z,86687.60
2022-08-09T23:12:39.697Z,86688.20
2022-08-09T23:15:09.519Z,86688.00
2022-08-09T23:17:38.963Z,86689.80
2022-08-09T23:20:08.933Z,86691.20
2022-08-09T23:22:38.126Z,86694.80
2022-08-09T23:25:08.265Z,86695.20
2022-08-09T23:27:37.690Z,86695.60
2022-08-09T23:30:26.786Z,86694.80
2022-08-09T23:32:56.243Z,86694.20
2022-08-09T23:35:25.774Z,86697.80
2022-08-09T23:37:55.087Z,86699.40
2022-08-09T23:40:24.397Z,86700.00
2022-08-09T23:42:53.708Z,86698.20
2022-08-09T23:45:37.865Z,86705.00
2022-08-09T23:48:09.114Z,86704.20
2022-08-09T23:50:38.470Z,86703.40
2022-08-09T23:53:07.872Z,86705.00
2022-08-09T23:55:39.921Z,86704.20
2022-08-09T23:58:25.957Z,86705.80
